sensor_id;sensor_type;location;lat;lon;timestamp;P1;durP1;ratioP1;P2;durP2;ratioP2
5058;SDS011;2548;52.050;11.036;2023-08-07T00:01:10;13.02;;;6.43;;
5058;SDS011;2548;52.050;11.036;2023-08-07T00:03:39;8.43;;;7.73;;
5058;SDS011;2548;52.050;11.036;2023-08-07T00:06:06;6.95;;;6.35;;
5058;SDS011;2548;52.050;11.036;2023-08-07T00:08:33;6.43;;;5.93;;
5058;SDS011;2548;52.050;11.036;2023-08-07T00:11:04;7.65;;;6.93;;
5058;SDS011;2548;52.050;11.036;2023-08-07T00:13:32;7.32;;;6.55;;
5058;SDS011;2548;52.050;11.036;2023-08-07T00:15:59;11.70;;;7.10;;
5058;SDS011;2548;52.050;11.036;2023-08-07T00:18:27;9.23;;;7.55;;
5058;SDS011;2548;52.050;11.036;2023-08-07T00:20:56;13.85;;;8.18;;
5058;SDS011;2548;52.050;11.036;2023-08-07T00:23:24;8.30;;;7.50;;
5058;SDS011;2548;52.050;11.036;2023-08-07T00:25:52;7.57;;;6.97;;
5058;SDS011;2548;52.050;11.036;2023-08-07T00:28:19;8.30;;;7.57;;
5058;SDS011;2548;52.050;11.036;2023-08-07T00:30:47;11.85;;;8.60;;
5058;SDS011;2548;52.050;11.036;2023-08-07T00:33:14;19.52;;;8.55;;
5058;SDS011;2548;52.050;11.036;2023-08-07T00:35:42;15.68;;;9.02;;
5058;SDS011;2548;52.050;11.036;2023-08-07T00:38:10;10.60;;;9.20;;
5058;SDS011;2548;52.050;11.036;2023-08-07T00:40:38;10.75;;;8.57;;
5058;SDS011;2548;52.050;11.036;2023-08-07T00:43:06;12.88;;;7.85;;
5058;SDS011;2548;52.050;11.036;2023-08-07T00:45:35;9.48;;;8.43;;
5058;SDS011;2548;52.050;11.036;2023-08-07T00:48:05;10.90;;;8.85;;
5058;SDS011;2548;52.050;11.036;2023-08-07T00:50:33;9.50;;;8.55;;
5058;SDS011;2548;52.050;11.036;2023-08-07T00:53:00;10.02;;;7.82;;
5058;SDS011;2548;52.050;11.036;2023-08-07T00:55:29;9.75;;;7.05;;
5058;SDS011;2548;52.050;11.036;2023-08-07T00:57:57;9.90;;;7.30;;
5058;SDS011;2548;52.050;11.036;2023-08-07T01:00:25;7.82;;;7.05;;
5058;SDS011;2548;52.050;11.036;2023-08-07T01:02:54;13.95;;;8.10;;
5058;SDS011;2548;52.050;11.036;2023-08-07T01:05:23;10.75;;;7.88;;
5058;SDS011;2548;52.050;11.036;2023-08-07T01:07:52;11.70;;;6.60;;
5058;SDS011;2548;52.050;11.036;2023-08-07T01:10:23;8.73;;;7.93;;
5058;SDS011;2548;52.050;11.036;2023-08-07T01:13:04;10.43;;;7.80;;
5058;SDS011;2548;52.050;11.036;2023-08-07T01:15:43;12.05;;;8.90;;
5058;SDS011;2548;52.050;11.036;2023-08-07T01:18:11;16.98;;;8.40;;
5058;SDS011;2548;52.050;11.036;2023-08-07T01:20:40;9.05;;;8.25;;
5058;SDS011;2548;52.050;11.036;2023-08-07T01:23:08;10.35;;;9.27;;
5058;SDS011;2548;52.050;11.036;2023-08-07T01:25:36;12.52;;;8.30;;
5058;SDS011;2548;52.050;11.036;2023-08-07T01:28:06;8.95;;;8.15;;
5058;SDS011;2548;52.050;11.036;2023-08-07T01:30:40;12.93;;;10.25;;
5058;SDS011;2548;52.050;11.036;2023-08-07T01:33:16;13.07;;;9.38;;
5058;SDS011;2548;52.050;11.036;2023-08-07T01:35:49;11.00;;;9.57;;
5058;SDS011;2548;52.050;11.036;2023-08-07T01:38:23;12.13;;;10.15;;
5058;SDS011;2548;52.050;11.036;2023-08-07T01:40:54;19.98;;;11.77;;
5058;SDS011;2548;52.050;11.036;2023-08-07T01:43:24;13.88;;;10.75;;
5058;SDS011;2548;52.050;11.036;2023-08-07T01:45:51;13.57;;;11.00;;
5058;SDS011;2548;52.050;11.036;2023-08-07T01:48:19;12.57;;;8.73;;
5058;SDS011;2548;52.050;11.036;2023-08-07T01:50:46;13.43;;;7.65;;
5058;SDS011;2548;52.050;11.036;2023-08-07T01:53:14;7.63;;;6.70;;
5058;SDS011;2548;52.050;11.036;2023-08-07T01:55:42;13.73;;;5.95;;
5058;SDS011;2548;52.050;11.036;2023-08-07T01:58:10;10.82;;;5.90;;
5058;SDS011;2548;52.050;11.036;2023-08-07T02:00:38;7.10;;;6.20;;
5058;SDS011;2548;52.050;11.036;2023-08-07T02:03:08;7.05;;;4.95;;
5058;SDS011;2548;52.050;11.036;2023-08-07T02:05:35;4.90;;;4.50;;
5058;SDS011;2548;52.050;11.036;2023-08-07T02:08:03;5.45;;;4.97;;
5058;SDS011;2548;52.050;11.036;2023-08-07T02:10:30;7.07;;;4.63;;
5058;SDS011;2548;52.050;11.036;2023-08-07T02:12:59;9.43;;;5.32;;
5058;SDS011;2548;52.050;11.036;2023-08-07T02:15:26;6.25;;;5.65;;
5058;SDS011;2548;52.050;11.036;2023-08-07T02:17:54;9.13;;;5.30;;
5058;SDS011;2548;52.050;11.036;2023-08-07T02:20:23;5.53;;;5.13;;
5058;SDS011;2548;52.050;11.036;2023-08-07T02:22:50;6.45;;;5.85;;
5058;SDS011;2548;52.050;11.036;2023-08-07T02:25:19;6.15;;;5.72;;
5058;SDS011;2548;52.050;11.036;2023-08-07T02:27:46;7.25;;;6.55;;
5058;SDS011;2548;52.050;11.036;2023-08-07T02:30:15;8.02;;;5.82;;
5058;SDS011;2548;52.050;11.036;2023-08-07T02:32:43;9.20;;;6.88;;
5058;SDS011;2548;52.050;11.036;2023-08-07T02:35:10;7.82;;;6.72;;
5058;SDS011;2548;52.050;11.036;2023-08-07T02:37:38;13.50;;;7.50;;
5058;SDS011;2548;52.050;11.036;2023-08-07T02:40:06;7.47;;;6.78;;
5058;SDS011;2548;52.050;11.036;2023-08-07T02:42:34;11.52;;;7.10;;
5058;SDS011;2548;52.050;11.036;2023-08-07T02:45:02;9.68;;;7.38;;
5058;SDS011;2548;52.050;11.036;2023-08-07T02:47:31;10.80;;;7.97;;
5058;SDS011;2548;52.050;11.036;2023-08-07T02:49:59;14.00;;;8.73;;
5058;SDS011;2548;52.050;11.036;2023-08-07T02:52:26;9.13;;;8.32;;
5058;SDS011;2548;52.050;11.036;2023-08-07T02:54:54;11.13;;;8.82;;
5058;SDS011;2548;52.050;11.036;2023-08-07T02:57:21;13.75;;;9.95;;
5058;SDS011;2548;52.050;11.036;2023-08-07T02:59:48;10.43;;;8.73;;
5058;SDS011;2548;52.050;11.036;2023-08-07T03:02:16;13.98;;;10.30;;
5058;SDS011;2548;52.050;11.036;2023-08-07T03:04:45;10.32;;;9.40;;
5058;SDS011;2548;52.050;11.036;2023-08-07T03:07:12;11.45;;;10.02;;
5058;SDS011;2548;52.050;11.036;2023-08-07T03:09:40;17.17;;;10.60;;
5058;SDS011;2548;52.050;11.036;2023-08-07T03:12:07;14.07;;;11.02;;
5058;SDS011;2548;52.050;11.036;2023-08-07T03:14:35;16.40;;;10.93;;
5058;SDS011;2548;52.050;11.036;2023-08-07T03:17:03;13.70;;;9.70;;
5058;SDS011;2548;52.050;11.036;2023-08-07T03:19:30;10.75;;;9.65;;
5058;SDS011;2548;52.050;11.036;2023-08-07T03:21:59;14.18;;;9.90;;
5058;SDS011;2548;52.050;11.036;2023-08-07T03:24:27;15.40;;;9.07;;
5058;SDS011;2548;52.050;11.036;2023-08-07T03:26:54;13.70;;;10.60;;
5058;SDS011;2548;52.050;11.036;2023-08-07T03:29:22;10.10;;;9.05;;
5058;SDS011;2548;52.050;11.036;2023-08-07T03:31:49;16.42;;;9.68;;
5058;SDS011;2548;52.050;11.036;2023-08-07T03:34:17;11.23;;;10.07;;
5058;SDS011;2548;52.050;11.036;2023-08-07T03:36:44;10.23;;;9.10;;
5058;SDS011;2548;52.050;11.036;2023-08-07T03:39:13;10.55;;;9.50;;
5058;SDS011;2548;52.050;11.036;2023-08-07T03:41:41;14.30;;;12.35;;
5058;SDS011;2548;52.050;11.036;2023-08-07T03:44:11;19.17;;;13.27;;
5058;SDS011;2548;52.050;11.036;2023-08-07T03:46:38;13.80;;;12.38;;
5058;SDS011;2548;52.050;11.036;2023-08-07T03:49:06;18.65;;;13.23;;
5058;SDS011;2548;52.050;11.036;2023-08-07T03:51:33;14.57;;;12.30;;
5058;SDS011;2548;52.050;11.036;2023-08-07T03:54:01;13.43;;;10.70;;
5058;SDS011;2548;52.050;11.036;2023-08-07T03:56:29;14.38;;;10.48;;
5058;SDS011;2548;52.050;11.036;2023-08-07T03:59:02;11.40;;;9.98;;
5058;SDS011;2548;52.050;11.036;2023-08-07T04:01:29;10.93;;;9.93;;
5058;SDS011;2548;52.050;11.036;2023-08-07T04:03:57;11.15;;;9.68;;
5058;SDS011;2548;52.050;11.036;2023-08-07T04:06:24;11.90;;;9.20;;
5058;SDS011;2548;52.050;11.036;2023-08-07T04:08:52;12.05;;;9.35;;
5058;SDS011;2548;52.050;11.036;2023-08-07T04:11:20;13.40;;;8.93;;
5058;SDS011;2548;52.050;11.036;2023-08-07T04:13:50;9.98;;;9.02;;
5058;SDS011;2548;52.050;11.036;2023-08-07T04:16:17;12.90;;;9.25;;
5058;SDS011;2548;52.050;11.036;2023-08-07T04:18:46;8.48;;;7.68;;
5058;SDS011;2548;52.050;11.036;2023-08-07T04:21:13;13.00;;;7.50;;
5058;SDS011;2548;52.050;11.036;2023-08-07T04:23:40;11.95;;;7.15;;
5058;SDS011;2548;52.050;11.036;2023-08-07T04:26:08;11.30;;;6.22;;
5058;SDS011;2548;52.050;11.036;2023-08-07T04:28:35;8.80;;;6.53;;
5058;SDS011;2548;52.050;11.036;2023-08-07T04:31:04;11.07;;;5.40;;
5058;SDS011;2548;52.050;11.036;2023-08-07T04:33:31;5.20;;;4.80;;
5058;SDS011;2548;52.050;11.036;2023-08-07T04:35:59;7.20;;;4.93;;
5058;SDS011;2548;52.050;11.036;2023-08-07T04:38:25;5.30;;;4.90;;
5058;SDS011;2548;52.050;11.036;2023-08-07T04:40:53;7.40;;;5.07;;
5058;SDS011;2548;52.050;11.036;2023-08-07T04:43:20;5.82;;;4.90;;
5058;SDS011;2548;52.050;11.036;2023-08-07T04:45:48;11.82;;;5.30;;
5058;SDS011;2548;52.050;11.036;2023-08-07T04:48:16;8.85;;;5.38;;
5058;SDS011;2548;52.050;11.036;2023-08-07T04:50:46;14.35;;;5.35;;
5058;SDS011;2548;52.050;11.036;2023-08-07T04:53:13;7.75;;;5.45;;
5058;SDS011;2548;52.050;11.036;2023-08-07T04:55:41;6.03;;;5.47;;
5058;SDS011;2548;52.050;11.036;2023-08-07T04:58:08;6.47;;;5.32;;
5058;SDS011;2548;52.050;11.036;2023-08-07T05:00:36;19.65;;;4.72;;
5058;SDS011;2548;52.050;11.036;2023-08-07T05:03:03;12.55;;;5.68;;
5058;SDS011;2548;52.050;11.036;2023-08-07T05:05:32;6.05;;;5.55;;
5058;SDS011;2548;52.050;11.036;2023-08-07T05:07:59;6.10;;;5.50;;
5058;SDS011;2548;52.050;11.036;2023-08-07T05:10:27;5.13;;;4.72;;
5058;SDS011;2548;52.050;11.036;2023-08-07T05:12:54;9.20;;;4.88;;
5058;SDS011;2548;52.050;11.036;2023-08-07T05:15:22;7.30;;;5.60;;
5058;SDS011;2548;52.050;11.036;2023-08-07T05:17:50;5.15;;;4.75;;
5058;SDS011;2548;52.050;11.036;2023-08-07T05:20:17;12.60;;;4.65;;
5058;SDS011;2548;52.050;11.036;2023-08-07T05:22:46;4.57;;;4.15;;
5058;SDS011;2548;52.050;11.036;2023-08-07T05:25:14;6.30;;;4.78;;
5058;SDS011;2548;52.050;11.036;2023-08-07T05:27:42;7.10;;;4.03;;
5058;SDS011;2548;52.050;11.036;2023-08-07T05:30:10;7.78;;;4.75;;
5058;SDS011;2548;52.050;11.036;2023-08-07T05:32:38;5.60;;;4.57;;
5058;SDS011;2548;52.050;11.036;2023-08-07T05:35:06;7.93;;;4.25;;
5058;SDS011;2548;52.050;11.036;2023-08-07T05:37:34;9.15;;;3.58;;
5058;SDS011;2548;52.050;11.036;2023-08-07T05:40:04;5.38;;;4.55;;
5058;SDS011;2548;52.050;11.036;2023-08-07T05:42:32;7.32;;;4.38;;
5058;SDS011;2548;52.050;11.036;2023-08-07T05:45:00;8.23;;;4.33;;
5058;SDS011;2548;52.050;11.036;2023-08-07T05:47:28;8.55;;;4.22;;
5058;SDS011;2548;52.050;11.036;2023-08-07T05:49:55;4.20;;;3.83;;
5058;SDS011;2548;52.050;11.036;2023-08-07T05:52:22;5.37;;;4.87;;
5058;SDS011;2548;52.050;11.036;2023-08-07T05:54:50;4.18;;;3.80;;
5058;SDS011;2548;52.050;11.036;2023-08-07T05:57:19;5.00;;;4.15;;
5058;SDS011;2548;52.050;11.036;2023-08-07T05:59:46;10.90;;;4.30;;
5058;SDS011;2548;52.050;11.036;2023-08-07T06:02:14;7.68;;;4.95;;
5058;SDS011;2548;52.050;11.036;2023-08-07T06:04:41;6.22;;;5.60;;
5058;SDS011;2548;52.050;11.036;2023-08-07T06:07:09;5.47;;;4.97;;
5058;SDS011;2548;52.050;11.036;2023-08-07T06:09:36;5.00;;;4.60;;
5058;SDS011;2548;52.050;11.036;2023-08-07T06:12:04;23.05;;;4.63;;
5058;SDS011;2548;52.050;11.036;2023-08-07T06:14:33;4.75;;;4.43;;
5058;SDS011;2548;52.050;11.036;2023-08-07T06:17:00;6.90;;;5.32;;
5058;SDS011;2548;52.050;11.036;2023-08-07T06:19:27;8.07;;;5.90;;
5058;SDS011;2548;52.050;11.036;2023-08-07T06:21:55;8.77;;;4.70;;
5058;SDS011;2548;52.050;11.036;2023-08-07T06:24:22;6.32;;;4.90;;
5058;SDS011;2548;52.050;11.036;2023-08-07T06:26:51;5.55;;;4.78;;
5058;SDS011;2548;52.050;11.036;2023-08-07T06:29:18;9.50;;;5.25;;
5058;SDS011;2548;52.050;11.036;2023-08-07T06:31:47;16.63;;;5.88;;
5058;SDS011;2548;52.050;11.036;2023-08-07T06:34:15;10.48;;;5.20;;
5058;SDS011;2548;52.050;11.036;2023-08-07T06:36:42;5.18;;;4.78;;
5058;SDS011;2548;52.050;11.036;2023-08-07T06:39:09;6.38;;;5.43;;
5058;SDS011;2548;52.050;11.036;2023-08-07T06:41:37;6.55;;;4.90;;
5058;SDS011;2548;52.050;11.036;2023-08-07T06:44:04;4.97;;;4.57;;
5058;SDS011;2548;52.050;11.036;2023-08-07T06:46:32;9.43;;;5.25;;
5058;SDS011;2548;52.050;11.036;2023-08-07T06:49:01;13.05;;;5.88;;
5058;SDS011;2548;52.050;11.036;2023-08-07T06:51:28;5.72;;;5.28;;
5058;SDS011;2548;52.050;11.036;2023-08-07T06:53:56;11.30;;;5.05;;
5058;SDS011;2548;52.050;11.036;2023-08-07T06:56:23;11.00;;;5.07;;
5058;SDS011;2548;52.050;11.036;2023-08-07T06:58:50;15.43;;;5.10;;
5058;SDS011;2548;52.050;11.036;2023-08-07T07:01:18;5.88;;;4.75;;
5058;SDS011;2548;52.050;11.036;2023-08-07T07:03:45;7.35;;;6.53;;
5058;SDS011;2548;52.050;11.036;2023-08-07T07:06:19;4.15;;;3.95;;
5058;SDS011;2548;52.050;11.036;2023-08-07T07:08:49;4.85;;;4.45;;
5058;SDS011;2548;52.050;11.036;2023-08-07T07:11:16;6.57;;;4.72;;
5058;SDS011;2548;52.050;11.036;2023-08-07T07:13:43;4.70;;;4.40;;
5058;SDS011;2548;52.050;11.036;2023-08-07T07:16:11;9.13;;;5.32;;
5058;SDS011;2548;52.050;11.036;2023-08-07T07:18:38;5.63;;;5.05;;
5058;SDS011;2548;52.050;11.036;2023-08-07T07:21:06;7.82;;;5.93;;
5058;SDS011;2548;52.050;11.036;2023-08-07T07:23:35;9.60;;;6.38;;
5058;SDS011;2548;52.050;11.036;2023-08-07T07:26:02;7.30;;;6.18;;
5058;SDS011;2548;52.050;11.036;2023-08-07T07:28:30;8.13;;;5.75;;
5058;SDS011;2548;52.050;11.036;2023-08-07T07:30:57;6.10;;;5.50;;
5058;SDS011;2548;52.050;11.036;2023-08-07T07:33:25;10.52;;;6.50;;
5058;SDS011;2548;52.050;11.036;2023-08-07T07:35:53;6.55;;;5.93;;
5058;SDS011;2548;52.050;11.036;2023-08-07T07:38:20;6.35;;;5.65;;
5058;SDS011;2548;52.050;11.036;2023-08-07T07:40:49;7.57;;;3.95;;
5058;SDS011;2548;52.050;11.036;2023-08-07T07:43:18;4.95;;;3.78;;
5058;SDS011;2548;52.050;11.036;2023-08-07T07:45:46;3.47;;;3.28;;
5058;SDS011;2548;52.050;11.036;2023-08-07T07:48:13;3.72;;;3.22;;
5058;SDS011;2548;52.050;11.036;2023-08-07T07:50:41;6.53;;;4.45;;
5058;SDS011;2548;52.050;11.036;2023-08-07T07:53:08;6.20;;;4.82;;
5058;SDS011;2548;52.050;11.036;2023-08-07T07:55:36;6.40;;;5.88;;
5058;SDS011;2548;52.050;11.036;2023-08-07T07:58:05;6.45;;;5.22;;
5058;SDS011;2548;52.050;11.036;2023-08-07T08:00:32;12.50;;;6.30;;
5058;SDS011;2548;52.050;11.036;2023-08-07T08:03:00;7.65;;;6.43;;
5058;SDS011;2548;52.050;11.036;2023-08-07T08:05:28;7.35;;;6.65;;
5058;SDS011;2548;52.050;11.036;2023-08-07T08:07:55;17.08;;;6.60;;
5058;SDS011;2548;52.050;11.036;2023-08-07T08:10:22;10.05;;;6.03;;
5058;SDS011;2548;52.050;11.036;2023-08-07T08:12:51;10.00;;;6.47;;
5058;SDS011;2548;52.050;11.036;2023-08-07T08:15:20;7.40;;;5.40;;
5058;SDS011;2548;52.050;11.036;2023-08-07T08:17:48;5.70;;;5.20;;
5058;SDS011;2548;52.050;11.036;2023-08-07T08:20:15;7.90;;;5.20;;
5058;SDS011;2548;52.050;11.036;2023-08-07T08:22:43;10.45;;;5.40;;
5058;SDS011;2548;52.050;11.036;2023-08-07T08:25:11;4.95;;;4.35;;
5058;SDS011;2548;52.050;11.036;2023-08-07T08:27:38;9.48;;;5.25;;
5058;SDS011;2548;52.050;11.036;2023-08-07T08:30:06;4.97;;;4.28;;
5058;SDS011;2548;52.050;11.036;2023-08-07T08:32:36;5.30;;;4.03;;
5058;SDS011;2548;52.050;11.036;2023-08-07T08:35:03;4.50;;;4.10;;
5058;SDS011;2548;52.050;11.036;2023-08-07T08:37:31;6.32;;;3.70;;
5058;SDS011;2548;52.050;11.036;2023-08-07T08:39:58;6.20;;;3.55;;
5058;SDS011;2548;52.050;11.036;2023-08-07T08:42:26;6.65;;;2.90;;
5058;SDS011;2548;52.050;11.036;2023-08-07T08:44:55;7.57;;;4.13;;
5058;SDS011;2548;52.050;11.036;2023-08-07T08:47:26;3.75;;;3.45;;
5058;SDS011;2548;52.050;11.036;2023-08-07T08:49:56;8.07;;;3.72;;
5058;SDS011;2548;52.050;11.036;2023-08-07T08:52:28;2.80;;;2.60;;
5058;SDS011;2548;52.050;11.036;2023-08-07T08:54:57;6.75;;;2.80;;
5058;SDS011;2548;52.050;11.036;2023-08-07T08:57:25;3.35;;;3.03;;
5058;SDS011;2548;52.050;11.036;2023-08-07T08:59:54;3.60;;;2.58;;
5058;SDS011;2548;52.050;11.036;2023-08-07T09:02:23;3.78;;;3.47;;
5058;SDS011;2548;52.050;11.036;2023-08-07T09:04:50;2.70;;;2.60;;
5058;SDS011;2548;52.050;11.036;2023-08-07T09:07:19;2.83;;;2.20;;
5058;SDS011;2548;52.050;11.036;2023-08-07T09:09:48;2.72;;;2.60;;
5058;SDS011;2548;52.050;11.036;2023-08-07T09:12:18;2.33;;;2.13;;
5058;SDS011;2548;52.050;11.036;2023-08-07T09:14:48;2.50;;;2.40;;
5058;SDS011;2548;52.050;11.036;2023-08-07T09:17:20;2.92;;;2.80;;
5058;SDS011;2548;52.050;11.036;2023-08-07T09:19:51;6.63;;;2.00;;
5058;SDS011;2548;52.050;11.036;2023-08-07T09:22:20;1.95;;;1.85;;
5058;SDS011;2548;52.050;11.036;2023-08-07T09:24:48;1.77;;;1.67;;
5058;SDS011;2548;52.050;11.036;2023-08-07T09:27:16;2.07;;;1.87;;
5058;SDS011;2548;52.050;11.036;2023-08-07T09:29:44;2.00;;;1.90;;
5058;SDS011;2548;52.050;11.036;2023-08-07T09:32:13;2.03;;;1.93;;
5058;SDS011;2548;52.050;11.036;2023-08-07T09:34:41;7.27;;;1.83;;
5058;SDS011;2548;52.050;11.036;2023-08-07T09:37:09;3.47;;;2.17;;
5058;SDS011;2548;52.050;11.036;2023-08-07T09:39:38;1.97;;;1.80;;
5058;SDS011;2548;52.050;11.036;2023-08-07T09:42:12;2.03;;;1.80;;
5058;SDS011;2548;52.050;11.036;2023-08-07T09:44:41;2.00;;;1.90;;
5058;SDS011;2548;52.050;11.036;2023-08-07T09:47:11;2.20;;;1.83;;
5058;SDS011;2548;52.050;11.036;2023-08-07T09:49:40;2.60;;;2.40;;
5058;SDS011;2548;52.050;11.036;2023-08-07T09:52:08;7.60;;;2.08;;
5058;SDS011;2548;52.050;11.036;2023-08-07T09:54:40;3.90;;;2.15;;
5058;SDS011;2548;52.050;11.036;2023-08-07T09:57:08;8.90;;;2.20;;
5058;SDS011;2548;52.050;11.036;2023-08-07T09:59:35;3.05;;;1.85;;
5058;SDS011;2548;52.050;11.036;2023-08-07T10:02:03;9.00;;;2.05;;
5058;SDS011;2548;52.050;11.036;2023-08-07T10:04:32;2.60;;;2.00;;
5058;SDS011;2548;52.050;11.036;2023-08-07T10:06:59;2.97;;;1.83;;
5058;SDS011;2548;52.050;11.036;2023-08-07T10:09:28;2.17;;;1.88;;
5058;SDS011;2548;52.050;11.036;2023-08-07T10:11:58;3.23;;;2.20;;
5058;SDS011;2548;52.050;11.036;2023-08-07T10:14:26;1.73;;;1.30;;
5058;SDS011;2548;52.050;11.036;2023-08-07T10:16:53;4.97;;;1.85;;
5058;SDS011;2548;52.050;11.036;2023-08-07T10:19:21;3.45;;;1.67;;
5058;SDS011;2548;52.050;11.036;2023-08-07T10:21:49;2.78;;;2.63;;
5058;SDS011;2548;52.050;11.036;2023-08-07T10:24:18;2.22;;;2.10;;
5058;SDS011;2548;52.050;11.036;2023-08-07T10:26:46;1.77;;;1.58;;
5058;SDS011;2548;52.050;11.036;2023-08-07T10:29:18;6.45;;;2.20;;
5058;SDS011;2548;52.050;11.036;2023-08-07T10:31:47;1.63;;;1.52;;
5058;SDS011;2548;52.050;11.036;2023-08-07T10:34:16;3.80;;;1.70;;
5058;SDS011;2548;52.050;11.036;2023-08-07T10:36:43;2.03;;;1.92;;
5058;SDS011;2548;52.050;11.036;2023-08-07T10:39:11;2.97;;;2.60;;
5058;SDS011;2548;52.050;11.036;2023-08-07T10:41:42;8.80;;;3.63;;
5058;SDS011;2548;52.050;11.036;2023-08-07T10:44:20;5.97;;;2.53;;
5058;SDS011;2548;52.050;11.036;2023-08-07T10:46:49;3.58;;;2.40;;
5058;SDS011;2548;52.050;11.036;2023-08-07T10:49:32;7.10;;;2.92;;
5058;SDS011;2548;52.050;11.036;2023-08-07T10:52:07;3.35;;;2.05;;
5058;SDS011;2548;52.050;11.036;2023-08-07T10:54:38;4.63;;;2.40;;
5058;SDS011;2548;52.050;11.036;2023-08-07T10:57:11;3.83;;;2.40;;
5058;SDS011;2548;52.050;11.036;2023-08-07T10:59:45;11.23;;;2.40;;
5058;SDS011;2548;52.050;11.036;2023-08-07T11:02:22;5.47;;;2.33;;
5058;SDS011;2548;52.050;11.036;2023-08-07T11:04:51;6.13;;;2.30;;
5058;SDS011;2548;52.050;11.036;2023-08-07T11:07:23;6.22;;;2.63;;
5058;SDS011;2548;52.050;11.036;2023-08-07T11:09:51;8.32;;;2.78;;
5058;SDS011;2548;52.050;11.036;2023-08-07T11:12:18;7.18;;;3.30;;
5058;SDS011;2548;52.050;11.036;2023-08-07T11:14:48;5.32;;;2.50;;
5058;SDS011;2548;52.050;11.036;2023-08-07T11:17:15;5.63;;;2.27;;
5058;SDS011;2548;52.050;11.036;2023-08-07T11:19:43;7.70;;;2.33;;
5058;SDS011;2548;52.050;11.036;2023-08-07T11:22:14;4.00;;;2.10;;
5058;SDS011;2548;52.050;11.036;2023-08-07T11:24:43;7.25;;;2.35;;
5058;SDS011;2548;52.050;11.036;2023-08-07T11:27:10;10.98;;;3.20;;
5058;SDS011;2548;52.050;11.036;2023-08-07T11:29:37;10.35;;;3.05;;
5058;SDS011;2548;52.050;11.036;2023-08-07T11:32:07;6.80;;;1.70;;
5058;SDS011;2548;52.050;11.036;2023-08-07T11:34:35;10.45;;;2.40;;
5058;SDS011;2548;52.050;11.036;2023-08-07T11:37:03;4.95;;;2.08;;
5058;SDS011;2548;52.050;11.036;2023-08-07T11:39:30;3.10;;;1.80;;
5058;SDS011;2548;52.050;11.036;2023-08-07T11:41:59;6.63;;;2.08;;
5058;SDS011;2548;52.050;11.036;2023-08-07T11:44:26;5.55;;;2.00;;
5058;SDS011;2548;52.050;11.036;2023-08-07T11:46:54;6.75;;;1.83;;
5058;SDS011;2548;52.050;11.036;2023-08-07T11:49:23;4.55;;;1.50;;
5058;SDS011;2548;52.050;11.036;2023-08-07T11:51:51;3.90;;;2.10;;
5058;SDS011;2548;52.050;11.036;2023-08-07T11:54:18;1.80;;;1.38;;
5058;SDS011;2548;52.050;11.036;2023-08-07T11:56:46;2.40;;;1.20;;
5058;SDS011;2548;52.050;11.036;2023-08-07T11:59:16;5.80;;;1.33;;
5058;SDS011;2548;52.050;11.036;2023-08-07T12:01:43;3.58;;;1.60;;
5058;SDS011;2548;52.050;11.036;2023-08-07T12:04:13;2.10;;;1.30;;
5058;SDS011;2548;52.050;11.036;2023-08-07T12:06:51;2.20;;;1.40;;
5058;SDS011;2548;52.050;11.036;2023-08-07T12:09:20;2.10;;;1.23;;
5058;SDS011;2548;52.050;11.036;2023-08-07T12:11:47;6.00;;;2.17;;
5058;SDS011;2548;52.050;11.036;2023-08-07T12:14:15;6.35;;;1.90;;
5058;SDS011;2548;52.050;11.036;2023-08-07T12:16:43;6.75;;;1.83;;
5058;SDS011;2548;52.050;11.036;2023-08-07T12:19:12;5.95;;;2.22;;
5058;SDS011;2548;52.050;11.036;2023-08-07T12:21:40;4.63;;;1.63;;
5058;SDS011;2548;52.050;11.036;2023-08-07T12:24:09;5.20;;;2.43;;
5058;SDS011;2548;52.050;11.036;2023-08-07T12:26:36;3.95;;;1.55;;
5058;SDS011;2548;52.050;11.036;2023-08-07T12:29:04;2.45;;;2.05;;
5058;SDS011;2548;52.050;11.036;2023-08-07T12:31:31;2.88;;;1.90;;
5058;SDS011;2548;52.050;11.036;2023-08-07T12:33:59;7.43;;;2.70;;
5058;SDS011;2548;52.050;11.036;2023-08-07T12:36:26;9.77;;;2.70;;
5058;SDS011;2548;52.050;11.036;2023-08-07T12:38:53;6.40;;;2.20;;
5058;SDS011;2548;52.050;11.036;2023-08-07T12:41:22;9.02;;;2.65;;
5058;SDS011;2548;52.050;11.036;2023-08-07T12:43:50;5.47;;;1.90;;
5058;SDS011;2548;52.050;11.036;2023-08-07T12:46:17;3.05;;;2.10;;
5058;SDS011;2548;52.050;11.036;2023-08-07T12:48:44;2.50;;;2.05;;
5058;SDS011;2548;52.050;11.036;2023-08-07T12:51:12;5.88;;;1.90;;
5058;SDS011;2548;52.050;11.036;2023-08-07T12:53:39;6.28;;;1.92;;
5058;SDS011;2548;52.050;11.036;2023-08-07T12:56:07;4.40;;;1.85;;
5058;SDS011;2548;52.050;11.036;2023-08-07T12:58:35;4.90;;;1.90;;
5058;SDS011;2548;52.050;11.036;2023-08-07T13:01:04;13.20;;;1.95;;
5058;SDS011;2548;52.050;11.036;2023-08-07T13:03:31;3.42;;;2.25;;
5058;SDS011;2548;52.050;11.036;2023-08-07T13:05:59;2.50;;;2.05;;
5058;SDS011;2548;52.050;11.036;2023-08-07T13:08:26;5.95;;;1.75;;
5058;SDS011;2548;52.050;11.036;2023-08-07T13:10:54;9.45;;;2.22;;
5058;SDS011;2548;52.050;11.036;2023-08-07T13:13:21;4.90;;;2.30;;
5058;SDS011;2548;52.050;11.036;2023-08-07T13:15:50;5.15;;;2.17;;
5058;SDS011;2548;52.050;11.036;2023-08-07T13:18:17;13.10;;;2.65;;
5058;SDS011;2548;52.050;11.036;2023-08-07T13:20:45;3.45;;;1.92;;
5058;SDS011;2548;52.050;11.036;2023-08-07T13:23:13;12.07;;;2.20;;
5058;SDS011;2548;52.050;11.036;2023-08-07T13:25:41;4.57;;;1.90;;
5058;SDS011;2548;52.050;11.036;2023-08-07T13:28:08;2.60;;;1.80;;
5058;SDS011;2548;52.050;11.036;2023-08-07T13:30:35;5.07;;;1.77;;
5058;SDS011;2548;52.050;11.036;2023-08-07T13:33:04;1.95;;;1.83;;
5058;SDS011;2548;52.050;11.036;2023-08-07T13:35:32;3.37;;;2.03;;
5058;SDS011;2548;52.050;11.036;2023-08-07T13:37:59;5.88;;;1.70;;
5058;SDS011;2548;52.050;11.036;2023-08-07T13:40:30;2.73;;;1.43;;
5058;SDS011;2548;52.050;11.036;2023-08-07T13:42:58;5.60;;;2.30;;
5058;SDS011;2548;52.050;11.036;2023-08-07T13:45:28;5.75;;;2.40;;
5058;SDS011;2548;52.050;11.036;2023-08-07T13:47:55;3.33;;;1.50;;
5058;SDS011;2548;52.050;11.036;2023-08-07T13:50:24;3.30;;;1.30;;
5058;SDS011;2548;52.050;11.036;2023-08-07T13:52:52;3.05;;;1.77;;
5058;SDS011;2548;52.050;11.036;2023-08-07T13:55:19;5.95;;;1.60;;
5058;SDS011;2548;52.050;11.036;2023-08-07T13:57:47;3.20;;;1.52;;
5058;SDS011;2548;52.050;11.036;2023-08-07T14:00:14;12.02;;;2.45;;
5058;SDS011;2548;52.050;11.036;2023-08-07T14:02:42;6.35;;;2.20;;
5058;SDS011;2548;52.050;11.036;2023-08-07T14:05:09;8.88;;;2.20;;
5058;SDS011;2548;52.050;11.036;2023-08-07T14:07:38;7.28;;;1.83;;
5058;SDS011;2548;52.050;11.036;2023-08-07T14:10:06;4.18;;;1.90;;
5058;SDS011;2548;52.050;11.036;2023-08-07T14:12:33;8.15;;;2.88;;
5058;SDS011;2548;52.050;11.036;2023-08-07T14:15:01;14.70;;;2.60;;
5058;SDS011;2548;52.050;11.036;2023-08-07T14:17:28;6.05;;;3.08;;
5058;SDS011;2548;52.050;11.036;2023-08-07T14:19:56;3.17;;;2.30;;
5058;SDS011;2548;52.050;11.036;2023-08-07T14:22:23;4.75;;;2.40;;
5058;SDS011;2548;52.050;11.036;2023-08-07T14:24:52;14.43;;;2.90;;
5058;SDS011;2548;52.050;11.036;2023-08-07T14:27:19;6.97;;;2.50;;
5058;SDS011;2548;52.050;11.036;2023-08-07T14:29:47;4.23;;;2.67;;
5058;SDS011;2548;52.050;11.036;2023-08-07T14:32:14;9.53;;;2.70;;
5058;SDS011;2548;52.050;11.036;2023-08-07T14:34:42;12.38;;;2.58;;
5058;SDS011;2548;52.050;11.036;2023-08-07T14:37:09;13.87;;;2.57;;
5058;SDS011;2548;52.050;11.036;2023-08-07T14:39:36;15.60;;;2.88;;
5058;SDS011;2548;52.050;11.036;2023-08-07T14:42:05;8.25;;;2.47;;
5058;SDS011;2548;52.050;11.036;2023-08-07T14:44:33;13.10;;;2.92;;
5058;SDS011;2548;52.050;11.036;2023-08-07T14:47:02;8.02;;;2.45;;
5058;SDS011;2548;52.050;11.036;2023-08-07T14:49:29;10.17;;;2.23;;
5058;SDS011;2548;52.050;11.036;2023-08-07T14:51:57;15.00;;;2.92;;
5058;SDS011;2548;52.050;11.036;2023-08-07T14:54:24;13.48;;;3.50;;
5058;SDS011;2548;52.050;11.036;2023-08-07T14:56:52;7.22;;;2.92;;
5058;SDS011;2548;52.050;11.036;2023-08-07T14:59:20;13.70;;;3.47;;
5058;SDS011;2548;52.050;11.036;2023-08-07T15:01:48;4.10;;;2.20;;
5058;SDS011;2548;52.050;11.036;2023-08-07T15:04:15;6.22;;;2.00;;